Urb Los Robles, Puerto Rico
Current Conditions -  °F | °C
As of 7:56 PM on Friday 31 Oct 2014 (Local Time) from TJSJ Reporting Station
Few Clouds Few Clouds  
Wind Chill: 82°   Ceiling: Unl
Heat Index: 89°   Visibility: 10mi
Dew Point: 75°   Wind: 3mph
Humidity: 79%   Direction: 130°SE
Pressure: 29.9"   Gusts: NA
Location:  18.2551°N, 65.9776°W
Report Text: TJSJ 312356Z 13003KT 10SM FEW060 28/24 A2990 RMK AO2 SLP124 T02780239 10300 20272 52015
Loading
Personal Weather Stations






























Interactive Weather Map
Tropical Storm Tracking
New forecast layout! Learn more

10-Day Weather Forecast

Advertisements
Track Severe Weather on mobile